createdAt,value
2023-03-03T00:01:27.837Z,5.54
2023-03-03T00:03:55.196Z,5.59
2023-03-03T00:06:22.161Z,5.51
2023-03-03T00:08:49.291Z,5.53
2023-03-03T00:11:17.375Z,5.47
2023-03-03T00:13:50.143Z,5.43
2023-03-03T00:16:22.482Z,5.41
2023-03-03T00:18:50.608Z,5.33
2023-03-03T00:21:23.441Z,5.43
2023-03-03T00:23:50.783Z,5.32
2023-03-03T00:26:31.069Z,5.33
2023-03-03T00:28:58.050Z,5.34
2023-03-03T00:31:34.987Z,5.32
2023-03-03T00:34:26.962Z,5.27
2023-03-03T00:36:59.039Z,5.37
2023-03-03T00:39:37.465Z,5.21
2023-03-03T00:42:17.986Z,5.18
2023-03-03T00:44:46.835Z,5.08
2023-03-03T00:47:31.438Z,5.18
2023-03-03T00:50:08.100Z,5.20
2023-03-03T00:52:37.802Z,5.16
2023-03-03T00:55:07.007Z,5.18
2023-03-03T00:57:34.145Z,5.39
2023-03-03T01:00:01.331Z,5.39
2023-03-03T01:02:32.710Z,5.41
2023-03-03T01:05:00.346Z,5.47
2023-03-03T01:07:27.490Z,5.47
2023-03-03T01:09:55.261Z,5.47
2023-03-03T01:12:23.959Z,5.51
2023-03-03T01:14:53.178Z,5.35
2023-03-03T01:17:20.247Z,5.46
2023-03-03T01:19:47.279Z,5.49
2023-03-03T01:22:14.325Z,5.60
2023-03-03T01:24:41.249Z,5.57
2023-03-03T01:27:08.143Z,5.48
2023-03-03T01:29:35.094Z,5.55
2023-03-03T01:32:02.043Z,5.65
2023-03-03T01:34:29.167Z,5.60
2023-03-03T01:36:56.128Z,5.61
2023-03-03T01:39:23.134Z,5.55
2023-03-03T01:41:50.005Z,5.57
2023-03-03T01:44:16.992Z,5.48
2023-03-03T01:46:53.006Z,5.50
2023-03-03T01:49:41.352Z,5.58
2023-03-03T01:52:20.210Z,5.62
2023-03-03T01:54:52.486Z,5.62
2023-03-03T01:57:33.302Z,5.54
2023-03-03T02:00:02.585Z,5.66
2023-03-03T02:02:41.732Z,5.63
2023-03-03T02:05:09.348Z,5.67
2023-03-03T02:07:37.507Z,5.67
2023-03-03T02:10:12.679Z,5.61
2023-03-03T02:12:42.541Z,5.71
2023-03-03T02:15:38.405Z,5.61
2023-03-03T02:18:09.827Z,5.56
2023-03-03T02:21:02.594Z,5.65
2023-03-03T02:23:53.345Z,5.67
2023-03-03T02:26:24.724Z,5.60
2023-03-03T02:28:56.817Z,5.60
2023-03-03T02:31:26.732Z,5.59
2023-03-03T02:33:55.521Z,5.49
2023-03-03T02:36:45.177Z,5.65
2023-03-03T02:39:18.338Z,5.65
2023-03-03T02:41:51.469Z,5.65
2023-03-03T02:44:27.447Z,5.70
2023-03-03T02:46:55.834Z,5.77
2023-03-03T02:49:25.843Z,5.64
2023-03-03T02:51:52.914Z,5.85
2023-03-03T02:54:21.996Z,5.68
2023-03-03T02:56:49.041Z,5.71
2023-03-03T02:59:16.538Z,5.83
2023-03-03T03:01:47.598Z,5.77
2023-03-03T03:04:21.537Z,5.76
2023-03-03T03:06:51.068Z,5.78
2023-03-03T03:09:19.826Z,5.83
2023-03-03T03:11:48.869Z,5.85
2023-03-03T03:14:18.762Z,5.55
2023-03-03T03:16:46.032Z,5.46
2023-03-03T03:19:13.162Z,5.49
2023-03-03T03:21:41.248Z,5.46
2023-03-03T03:24:09.311Z,5.44
2023-03-03T03:26:38.772Z,5.43
2023-03-03T03:29:06.782Z,5.33
2023-03-03T03:31:34.621Z,5.44
2023-03-03T03:34:03.273Z,5.39
2023-03-03T03:36:30.708Z,5.29
2023-03-03T03:38:58.064Z,5.44
2023-03-03T03:41:25.310Z,5.20
2023-03-03T03:43:52.287Z,5.48
2023-03-03T03:46:19.346Z,5.43
2023-03-03T03:48:46.658Z,5.50
2023-03-03T03:51:16.182Z,5.59
2023-03-03T03:53:43.292Z,5.44
2023-03-03T03:56:10.399Z,5.43
2023-03-03T03:58:37.928Z,5.28
2023-03-03T04:01:09.188Z,5.31
2023-03-03T04:03:42.693Z,5.42
2023-03-03T04:06:13.206Z,5.38
2023-03-03T04:08:40.237Z,5.45
2023-03-03T04:11:08.716Z,5.25
2023-03-03T04:13:35.601Z,5.33
2023-03-03T04:16:06.345Z,5.39
2023-03-03T04:18:33.966Z,5.40
2023-03-03T04:21:01.732Z,5.39
2023-03-03T04:23:29.010Z,5.13
2023-03-03T04:25:55.934Z,5.11
2023-03-03T04:28:25.414Z,4.99
2023-03-03T04:30:53.083Z,5.02
2023-03-03T04:33:22.176Z,5.18
2023-03-03T04:35:49.860Z,5.33
2023-03-03T04:38:17.518Z,5.47
2023-03-03T04:40:45.667Z,5.45
2023-03-03T04:43:13.618Z,5.51
2023-03-03T04:45:40.805Z,5.57
2023-03-03T04:48:08.740Z,5.63
2023-03-03T04:50:36.827Z,5.56
2023-03-03T04:53:04.581Z,5.59
2023-03-03T04:55:31.705Z,5.58
2023-03-03T04:57:58.812Z,5.54
2023-03-03T05:00:25.828Z,5.58
2023-03-03T05:02:52.844Z,5.57
2023-03-03T05:05:20.012Z,5.65
2023-03-03T05:07:47.043Z,5.61
2023-03-03T05:10:14.094Z,5.66
2023-03-03T05:12:41.080Z,5.57
2023-03-03T05:15:08.605Z,5.53
2023-03-03T05:17:35.868Z,5.53
2023-03-03T05:20:03.512Z,5.32
2023-03-03T05:22:30.519Z,5.10
2023-03-03T05:24:57.825Z,5.10
2023-03-03T05:27:24.808Z,5.15
2023-03-03T05:29:52.095Z,5.14
2023-03-03T05:32:19.044Z,5.12
2023-03-03T05:34:46.047Z,5.15
2023-03-03T05:37:13.575Z,5.13
2023-03-03T05:39:40.567Z,5.05
2023-03-03T05:42:07.467Z,5.23
2023-03-03T05:44:34.586Z,5.12
2023-03-03T05:47:01.570Z,5.10
2023-03-03T05:49:28.640Z,5.13
2023-03-03T05:51:55.592Z,5.18
2023-03-03T05:54:22.664Z,5.09
2023-03-03T05:56:49.597Z,5.29
2023-03-03T05:59:16.620Z,5.33
2023-03-03T06:01:43.561Z,5.32
2023-03-03T06:04:10.632Z,5.47
2023-03-03T06:06:37.632Z,5.50
2023-03-03T06:09:04.884Z,5.58
2023-03-03T06:11:32.070Z,5.61
2023-03-03T06:13:59.186Z,5.59
2023-03-03T06:16:26.208Z,5.64
2023-03-03T06:18:53.299Z,5.67
2023-03-03T06:21:20.301Z,5.71
2023-03-03T06:23:47.303Z,5.78
2023-03-03T06:26:14.181Z,5.74
2023-03-03T06:28:41.205Z,5.81
2023-03-03T06:31:08.129Z,5.75
2023-03-03T06:33:35.155Z,5.61
2023-03-03T06:36:04.125Z,5.81
2023-03-03T06:38:32.568Z,5.95
2023-03-03T06:41:02.176Z,6.02
2023-03-03T06:43:29.124Z,6.16
2023-03-03T06:45:56.050Z,6.15
2023-03-03T06:48:22.975Z,6.14
2023-03-03T06:50:49.946Z,6.14
2023-03-03T06:53:18.993Z,6.22
2023-03-03T06:55:46.500Z,6.20
2023-03-03T06:58:21.931Z,6.23
2023-03-03T07:00:55.650Z,6.21
2023-03-03T07:03:49.046Z,6.31
2023-03-03T07:06:22.496Z,6.16
2023-03-03T07:08:50.156Z,6.20
2023-03-03T07:11:20.886Z,6.25
2023-03-03T07:13:51.053Z,6.29
2023-03-03T07:16:20.064Z,6.35
2023-03-03T07:19:05.546Z,6.34
2023-03-03T07:21:38.220Z,6.35
2023-03-03T07:24:17.365Z,6.31
2023-03-03T07:26:44.553Z,6.32
2023-03-03T07:29:24.593Z,6.42
2023-03-03T07:31:52.173Z,6.17
2023-03-03T07:34:37.972Z,6.16
2023-03-03T07:37:18.404Z,6.24
2023-03-03T07:39:47.565Z,6.26
2023-03-03T07:42:24.140Z,6.18
2023-03-03T07:45:02.515Z,6.35
2023-03-03T07:47:36.516Z,6.21
2023-03-03T07:50:21.620Z,6.11
2023-03-03T07:52:57.166Z,6.44
2023-03-03T07:55:38.109Z,6.47
2023-03-03T07:58:11.325Z,6.45
2023-03-03T08:00:57.019Z,6.62
2023-03-03T08:03:24.482Z,6.44
2023-03-03T08:05:52.095Z,6.48
2023-03-03T08:08:37.048Z,6.61
2023-03-03T08:11:06.428Z,6.59
2023-03-03T08:13:33.448Z,6.70
2023-03-03T08:16:23.081Z,6.66
2023-03-03T08:18:53.323Z,6.73
2023-03-03T08:21:21.510Z,6.75
2023-03-03T08:23:52.156Z,6.72
2023-03-03T08:26:23.791Z,6.76
2023-03-03T08:28:51.793Z,6.93
2023-03-03T08:31:34.379Z,6.91
2023-03-03T08:34:05.817Z,6.88
2023-03-03T08:36:34.820Z,6.89
2023-03-03T08:39:03.266Z,6.94
2023-03-03T08:41:30.378Z,7.03
2023-03-03T08:54:22.412Z,7.15
2023-03-03T08:56:53.296Z,7.08
2023-03-03T08:59:33.060Z,6.99
2023-03-03T09:02:00.164Z,7.32
2023-03-03T09:04:28.322Z,7.28
2023-03-03T09:06:55.352Z,7.17
2023-03-03T09:09:22.414Z,7.18
2023-03-03T09:11:49.721Z,7.23
2023-03-03T09:14:18.507Z,7.33
2023-03-03T09:16:51.915Z,7.32
2023-03-03T09:19:36.127Z,7.37
2023-03-03T09:22:20.283Z,7.23
2023-03-03T09:24:49.037Z,7.42
2023-03-03T09:27:37.337Z,7.11
2023-03-03T09:30:36.450Z,7.65
2023-03-03T09:33:23.246Z,7.91
2023-03-03T09:36:06.315Z,7.96
2023-03-03T09:38:43.825Z,8.04
2023-03-03T09:41:10.930Z,8.08
2023-03-03T09:43:55.810Z,8.00
2023-03-03T09:46:55.231Z,8.02
2023-03-03T09:49:36.379Z,7.86
2023-03-03T09:52:19.032Z,7.80
2023-03-03T09:55:11.475Z,7.84
2023-03-03T09:57:45.192Z,7.94
2023-03-03T10:00:27.496Z,8.07
2023-03-03T10:03:32.055Z,8.24
2023-03-03T10:06:24.183Z,8.16
2023-03-03T10:09:03.265Z,8.15
2023-03-03T10:11:45.246Z,8.44
2023-03-03T10:14:35.359Z,8.55
2023-03-03T10:17:33.035Z,8.79
2023-03-03T10:20:12.023Z,8.79
2023-03-03T10:22:54.065Z,8.74
2023-03-03T10:25:42.348Z,8.86
2023-03-03T10:28:30.499Z,8.90
2023-03-03T10:31:20.667Z,8.71
2023-03-03T10:34:04.568Z,8.39
2023-03-03T10:36:34.469Z,8.49
2023-03-03T10:39:10.492Z,8.70
2023-03-03T10:41:51.775Z,8.54
2023-03-03T10:44:25.815Z,8.47
2023-03-03T10:47:06.103Z,8.36
2023-03-03T10:49:52.320Z,8.33
2023-03-03T10:52:34.085Z,8.30
2023-03-03T10:55:17.227Z,8.03
2023-03-03T10:58:14.022Z,8.34
2023-03-03T11:00:47.857Z,8.44
2023-03-03T11:03:35.497Z,8.70
2023-03-03T11:06:14.712Z,8.55
2023-03-03T11:08:53.704Z,8.59
2023-03-03T11:11:28.480Z,8.53
2023-03-03T11:14:02.253Z,8.32
2023-03-03T11:16:32.302Z,8.26
2023-03-03T11:19:17.910Z,8.01
2023-03-03T11:22:16.978Z,8.05
2023-03-03T11:25:13.356Z,8.05
2023-03-03T11:28:08.446Z,8.01
2023-03-03T11:30:50.113Z,7.94
2023-03-03T11:33:26.863Z,8.09
2023-03-03T11:36:08.982Z,7.87
2023-03-03T11:39:00.693Z,7.97
2023-03-03T11:41:38.268Z,8.00
2023-03-03T11:44:22.491Z,7.70
2023-03-03T11:47:10.411Z,7.80
2023-03-03T11:49:48.792Z,7.93
2023-03-03T11:52:36.948Z,8.05
2023-03-03T11:55:16.009Z,8.16
2023-03-03T11:58:07.216Z,8.23
2023-03-03T12:00:59.914Z,8.23
2023-03-03T12:03:39.656Z,8.15
2023-03-03T12:06:40.952Z,8.14
2023-03-03T12:09:42.017Z,8.07
2023-03-03T12:12:18.811Z,8.10
2023-03-03T12:14:45.696Z,8.09
2023-03-03T12:17:31.680Z,7.93
2023-03-03T12:20:03.544Z,7.84
2023-03-03T12:25:54.885Z,7.98
2023-03-03T12:28:36.415Z,8.10
2023-03-03T12:31:42.482Z,8.28
2023-03-03T12:34:17.876Z,8.14
2023-03-03T12:36:56.051Z,8.20
2023-03-03T12:40:00.480Z,8.26
2023-03-03T12:42:51.586Z,8.24
2023-03-03T12:45:35.221Z,8.16
2023-03-03T12:48:15.984Z,8.18
2023-03-03T12:50:55.868Z,8.19
2023-03-03T12:53:25.759Z,8.04
2023-03-03T12:56:07.701Z,8.03
2023-03-03T12:58:52.536Z,7.95
2023-03-03T13:01:31.524Z,7.83
2023-03-03T13:04:17.250Z,7.82
2023-03-03T13:06:52.510Z,7.84
2023-03-03T13:09:56.905Z,7.85
2023-03-03T13:12:36.724Z,7.81
2023-03-03T13:15:32.544Z,7.81
2023-03-03T13:18:01.008Z,7.73
2023-03-03T13:20:39.852Z,7.55
2023-03-03T13:23:45.731Z,7.51
2023-03-03T13:26:19.196Z,7.55
2023-03-03T13:28:56.555Z,7.74
2023-03-03T13:31:32.459Z,7.77
2023-03-03T13:34:05.845Z,7.64
2023-03-03T13:37:12.666Z,7.82
2023-03-03T13:40:13.668Z,7.81
2023-03-03T13:42:52.462Z,7.64
2023-03-03T13:45:31.400Z,7.90
2023-03-03T13:48:31.355Z,7.90
2023-03-03T13:51:07.250Z,7.86
2023-03-03T13:53:34.438Z,7.69
2023-03-03T13:56:23.011Z,7.60
2023-03-03T13:59:14.783Z,7.55
2023-03-03T14:01:53.828Z,7.63
2023-03-03T14:04:29.975Z,7.63
2023-03-03T14:07:25.147Z,7.66
2023-03-03T14:09:55.155Z,7.90
2023-03-03T14:12:22.112Z,7.95
2023-03-03T14:15:04.306Z,7.99
2023-03-03T14:18:09.896Z,8.11
2023-03-03T14:20:47.059Z,8.15
2023-03-03T14:23:43.263Z,8.17
2023-03-03T14:26:14.140Z,8.04
2023-03-03T14:28:49.885Z,7.99
2023-03-03T14:31:31.060Z,7.82
2023-03-03T14:34:22.832Z,7.63
2023-03-03T14:36:54.411Z,7.36
2023-03-03T14:39:39.485Z,7.46
2023-03-03T14:42:15.082Z,7.37
2023-03-03T14:44:55.475Z,7.34
2023-03-03T14:47:24.180Z,7.32
2023-03-03T14:49:52.363Z,7.33
2023-03-03T14:52:21.392Z,7.61
2023-03-03T14:54:51.729Z,7.62
2023-03-03T14:57:34.678Z,7.61
2023-03-03T15:00:11.026Z,7.36
2023-03-03T15:03:03.238Z,7.39
2023-03-03T15:05:33.885Z,7.23
2023-03-03T15:08:03.651Z,7.22
2023-03-03T15:10:40.200Z,7.01
2023-03-03T15:13:19.713Z,7.22
2023-03-03T15:16:17.824Z,7.35
2023-03-03T15:18:56.019Z,7.47
2023-03-03T15:21:28.823Z,7.47
2023-03-03T15:24:22.149Z,7.18
2023-03-03T15:27:02.392Z,7.10
2023-03-03T15:29:37.361Z,6.90
2023-03-03T15:32:21.221Z,6.98
2023-03-03T15:35:10.314Z,6.96
2023-03-03T15:37:53.109Z,6.94
2023-03-03T15:40:32.059Z,6.80
2023-03-03T15:43:28.367Z,6.75
2023-03-03T15:46:33.360Z,6.79
2023-03-03T15:49:38.313Z,6.72
2023-03-03T15:52:23.375Z,6.77
2023-03-03T15:55:19.021Z,6.74
2023-03-03T15:58:07.566Z,6.85
2023-03-03T16:00:40.683Z,6.64
2023-03-03T16:03:17.918Z,6.62
2023-03-03T16:05:53.698Z,6.40
2023-03-03T16:08:38.384Z,6.55
2023-03-03T16:11:24.113Z,6.67
2023-03-03T16:13:59.482Z,6.71
2023-03-03T16:16:37.728Z,6.89
2023-03-03T16:19:21.569Z,6.93
2023-03-03T16:22:00.653Z,6.96
2023-03-03T16:25:05.019Z,7.09
2023-03-03T16:27:41.194Z,7.13
2023-03-03T16:30:29.796Z,7.14
2023-03-03T16:33:11.720Z,7.20
2023-03-03T16:35:50.445Z,7.21
2023-03-03T16:38:41.848Z,7.08
2023-03-03T16:41:21.421Z,7.09
2023-03-03T16:44:29.023Z,7.16
2023-03-03T16:47:11.123Z,7.11
2023-03-03T16:49:52.942Z,6.92
2023-03-03T16:52:39.447Z,6.87
2023-03-03T16:55:19.664Z,7.15
2023-03-03T16:57:58.081Z,7.09
2023-03-03T17:01:11.470Z,7.07
2023-03-03T17:04:07.054Z,7.10
2023-03-03T17:06:50.454Z,6.91
2023-03-03T17:09:36.678Z,6.91
2023-03-03T17:12:13.913Z,7.00
2023-03-03T17:14:58.388Z,6.94
2023-03-03T17:17:52.784Z,6.76
2023-03-03T17:20:38.334Z,6.66
2023-03-03T17:23:23.816Z,6.83
2023-03-03T17:26:07.379Z,6.85
2023-03-03T17:28:46.988Z,6.62
2023-03-03T17:31:52.663Z,6.42
2023-03-03T17:34:31.328Z,6.47
2023-03-03T17:37:03.562Z,6.45
2023-03-03T17:39:42.863Z,6.55
2023-03-03T17:42:23.614Z,6.58
2023-03-03T17:45:06.410Z,6.67
2023-03-03T17:47:54.962Z,6.48
2023-03-03T17:50:43.539Z,6.37
2023-03-03T17:53:56.520Z,6.43
2023-03-03T17:56:41.774Z,6.30
2023-03-03T17:59:30.308Z,6.34
2023-03-03T18:02:15.756Z,6.51
2023-03-03T18:04:54.712Z,6.59
2023-03-03T18:07:27.760Z,6.69
2023-03-03T18:10:00.531Z,6.59
2023-03-03T18:13:10.033Z,6.48
2023-03-03T18:16:10.327Z,6.68
2023-03-03T18:18:50.362Z,6.72
2023-03-03T18:21:25.908Z,6.61
2023-03-03T18:24:13.225Z,6.76
2023-03-03T18:26:43.896Z,6.95
2023-03-03T18:29:16.956Z,6.95
2023-03-03T18:32:02.376Z,7.03
2023-03-03T18:34:40.579Z,7.11
2023-03-03T18:37:30.536Z,7.18
2023-03-03T18:40:26.914Z,7.02
2023-03-03T18:42:54.894Z,6.90
2023-03-03T18:45:25.364Z,6.90
2023-03-03T18:48:01.378Z,6.83
2023-03-03T18:50:37.582Z,6.75
2023-03-03T18:53:25.808Z,6.78
2023-03-03T18:55:55.281Z,6.67
2023-03-03T18:58:33.639Z,6.73
2023-03-03T19:01:36.288Z,6.75
2023-03-03T19:04:18.343Z,6.85
2023-03-03T19:06:48.331Z,6.93
2023-03-03T19:09:49.441Z,7.06
2023-03-03T19:12:17.630Z,7.10
2023-03-03T19:14:47.018Z,7.15
2023-03-03T19:17:23.333Z,7.19
2023-03-03T19:20:15.219Z,7.18
2023-03-03T19:22:50.986Z,7.26
2023-03-03T19:25:26.101Z,7.30
2023-03-03T19:28:15.204Z,7.34
2023-03-03T19:31:05.416Z,7.39
2023-03-03T19:33:57.231Z,7.27
2023-03-03T19:36:30.154Z,7.23
2023-03-03T19:39:13.095Z,7.29
2023-03-03T19:42:00.965Z,7.25
2023-03-03T19:45:12.903Z,7.27
2023-03-03T19:48:02.601Z,7.23
2023-03-03T19:50:54.651Z,7.17
2023-03-03T19:53:33.850Z,7.08
2023-03-03T19:56:19.819Z,6.97
2023-03-03T19:58:52.431Z,6.97
2023-03-03T20:01:43.486Z,6.96
2023-03-03T20:04:26.489Z,7.18
2023-03-03T20:07:18.127Z,7.10
2023-03-03T20:10:14.186Z,7.25
2023-03-03T20:13:03.734Z,7.24
2023-03-03T20:15:52.672Z,7.28
2023-03-03T20:18:41.741Z,7.32
2023-03-03T20:21:18.859Z,7.32
2023-03-03T20:23:53.055Z,7.32
2023-03-03T20:26:28.572Z,7.25
2023-03-03T20:29:11.965Z,7.22
2023-03-03T20:32:02.524Z,7.18
2023-03-03T20:34:42.110Z,7.22
2023-03-03T20:37:35.546Z,7.20
2023-03-03T20:40:36.756Z,7.22
2023-03-03T20:43:19.548Z,7.15
2023-03-03T20:46:04.883Z,7.19
2023-03-03T20:49:13.347Z,6.99
2023-03-03T20:51:50.740Z,6.94
2023-03-03T20:54:29.947Z,7.00
2023-03-03T20:57:13.179Z,6.90
2023-03-03T20:59:58.970Z,6.70
2023-03-03T21:02:39.107Z,6.74
2023-03-03T21:05:18.912Z,6.68
2023-03-03T21:07:58.615Z,6.69
2023-03-03T21:10:36.774Z,6.54
2023-03-03T21:13:29.519Z,6.49
2023-03-03T21:16:02.830Z,6.49
2023-03-03T21:18:29.795Z,6.55
2023-03-03T21:20:56.739Z,6.55
2023-03-03T21:23:24.040Z,6.42
2023-03-03T21:25:54.556Z,6.61
2023-03-03T21:28:31.919Z,6.57
2023-03-03T21:31:06.712Z,6.65
2023-03-03T21:33:45.766Z,6.74
2023-03-03T21:36:15.500Z,6.75
2023-03-03T21:38:42.988Z,6.77
2023-03-03T21:41:10.048Z,6.71
2023-03-03T21:43:40.916Z,6.72
2023-03-03T21:46:08.016Z,6.79
2023-03-03T21:48:35.296Z,6.74
2023-03-03T21:51:02.315Z,6.69
2023-03-03T21:53:30.806Z,6.74
2023-03-03T21:55:58.077Z,6.69
2023-03-03T21:58:25.187Z,6.62
2023-03-03T22:00:52.125Z,6.74
2023-03-03T22:03:21.243Z,6.69
2023-03-03T22:05:51.440Z,6.68
2023-03-03T22:08:22.540Z,6.65
2023-03-03T22:10:56.306Z,6.66
2023-03-03T22:13:25.240Z,6.58
2023-03-03T22:15:53.329Z,6.54
2023-03-03T22:18:20.808Z,6.50
2023-03-03T22:20:48.949Z,6.60
2023-03-03T22:23:16.759Z,6.59
2023-03-03T22:25:43.678Z,6.47
2023-03-03T22:28:10.732Z,6.50
2023-03-03T22:30:37.754Z,6.37
2023-03-03T22:33:04.905Z,6.32
2023-03-03T22:35:32.105Z,6.10
2023-03-03T22:37:59.083Z,5.92
2023-03-03T22:40:26.049Z,5.91
2023-03-03T22:42:53.102Z,5.69
2023-03-03T22:45:20.266Z,5.70
2023-03-03T22:47:47.150Z,5.62
2023-03-03T22:50:14.294Z,5.68
2023-03-03T22:52:41.466Z,5.53
2023-03-03T22:55:09.044Z,5.57
2023-03-03T22:57:35.969Z,5.56
2023-03-03T23:00:03.269Z,5.57
2023-03-03T23:02:31.561Z,5.79
2023-03-03T23:05:01.886Z,5.87
2023-03-03T23:07:30.315Z,5.82
2023-03-03T23:09:57.237Z,5.86
2023-03-03T23:12:24.283Z,5.95
2023-03-03T23:14:51.335Z,6.13
2023-03-03T23:17:18.268Z,6.18
2023-03-03T23:19:46.455Z,6.22
2023-03-03T23:22:13.917Z,6.22
2023-03-03T23:24:42.308Z,6.07
2023-03-03T23:27:11.063Z,6.14
2023-03-03T23:29:38.825Z,6.21
2023-03-03T23:32:06.443Z,6.20
2023-03-03T23:34:33.324Z,6.17
2023-03-03T23:37:00.342Z,6.19
2023-03-03T23:39:27.246Z,6.03
2023-03-03T23:41:54.225Z,5.95
2023-03-03T23:44:21.191Z,6.09
2023-03-03T23:46:48.165Z,6.04
2023-03-03T23:49:15.608Z,6.13
2023-03-03T23:51:43.047Z,5.90
2023-03-03T23:54:10.101Z,5.65
2023-03-03T23:56:37.409Z,5.64
2023-03-03T23:59:04.653Z,5.68
